createdAt,value
2018-07-03T00:00:04.169Z,18.90
2018-07-03T00:02:35.197Z,18.80
2018-07-03T00:05:07.166Z,18.80
2018-07-03T00:07:38.517Z,18.80
2018-07-03T00:10:10.758Z,18.80
2018-07-03T00:12:41.740Z,18.70
2018-07-03T00:15:11.957Z,18.70
2018-07-03T00:17:43.175Z,18.60
2018-07-03T00:20:13.902Z,18.60
2018-07-03T00:22:44.499Z,18.60
2018-07-03T00:25:15.700Z,18.60
2018-07-03T00:27:45.766Z,18.50
2018-07-03T00:30:16.163Z,18.50
2018-07-03T00:32:46.785Z,18.40
2018-07-03T00:35:17.084Z,18.40
2018-07-03T00:37:48.140Z,18.30
2018-07-03T00:40:19.525Z,18.30
2018-07-03T00:42:51.150Z,18.20
2018-07-03T00:45:22.648Z,18.20
2018-07-03T00:47:54.168Z,18.10
2018-07-03T00:50:24.346Z,18.10
2018-07-03T00:52:55.164Z,18.00
2018-07-03T00:55:25.311Z,18.00
2018-07-03T00:57:56.544Z,18.00
2018-07-03T01:00:36.059Z,17.90
2018-07-03T01:03:06.145Z,17.90
2018-07-03T01:05:36.961Z,17.90
2018-07-03T01:08:07.814Z,17.80
2018-07-03T01:10:38.920Z,17.80
2018-07-03T01:13:09.098Z,17.80
2018-07-03T01:15:43.100Z,17.70
2018-07-03T01:18:13.914Z,17.70
2018-07-03T01:20:44.466Z,17.70
2018-07-03T01:23:14.607Z,17.60
2018-07-03T01:25:44.970Z,17.60
2018-07-03T01:28:15.786Z,17.60
2018-07-03T01:30:48.969Z,17.50
2018-07-03T01:33:19.779Z,17.50
2018-07-03T01:35:50.399Z,17.50
2018-07-03T01:38:21.608Z,17.40
2018-07-03T01:40:52.309Z,17.40
2018-07-03T01:43:24.143Z,17.40
2018-07-03T01:45:54.786Z,17.40
2018-07-03T01:48:25.229Z,17.40
2018-07-03T01:50:55.513Z,17.30
2018-07-03T01:53:25.710Z,17.30
2018-07-03T01:55:56.806Z,17.30
2018-07-03T01:58:29.637Z,17.30
2018-07-03T02:01:01.645Z,17.30
2018-07-03T02:03:33.763Z,17.20
2018-07-03T02:06:05.303Z,17.20
2018-07-03T02:08:36.001Z,17.20
2018-07-03T02:11:06.795Z,17.20
2018-07-03T02:13:37.880Z,17.10
2018-07-03T02:16:09.253Z,17.10
2018-07-03T02:18:40.602Z,17.10
2018-07-03T02:21:11.363Z,17.10
2018-07-03T02:23:44.066Z,17.10
2018-07-03T02:26:14.422Z,17.10
2018-07-03T02:28:44.848Z,17.10
2018-07-03T02:31:15.427Z,17.00
2018-07-03T02:33:45.648Z,17.00
2018-07-03T02:36:15.818Z,17.00
2018-07-03T02:38:46.576Z,17.00
2018-07-03T02:41:16.810Z,16.90
2018-07-03T02:43:47.290Z,16.90
2018-07-03T02:46:19.119Z,16.90
2018-07-03T02:48:50.633Z,16.90
2018-07-03T02:51:20.984Z,16.90
2018-07-03T02:53:51.549Z,16.80
2018-07-03T02:56:22.719Z,16.80
2018-07-03T02:58:52.994Z,16.80
2018-07-03T03:01:23.887Z,16.80
2018-07-03T03:03:53.895Z,16.80
2018-07-03T03:06:23.965Z,16.70
2018-07-03T03:08:55.061Z,16.70
2018-07-03T03:11:25.238Z,16.70
2018-07-03T03:13:57.064Z,16.70
2018-07-03T03:16:27.972Z,16.70
2018-07-03T03:18:58.875Z,16.60
2018-07-03T03:21:33.085Z,16.60
2018-07-03T03:24:03.702Z,16.60
2018-07-03T03:26:34.090Z,16.60
2018-07-03T03:29:04.701Z,16.60
2018-07-03T03:31:34.870Z,16.50
2018-07-03T03:34:05.049Z,16.50
2018-07-03T03:36:36.435Z,16.50
2018-07-03T03:39:10.097Z,16.50
2018-07-03T03:41:40.921Z,16.50
2018-07-03T03:44:11.864Z,16.40
2018-07-03T03:46:43.622Z,16.40
2018-07-03T03:49:14.694Z,16.40
2018-07-03T03:51:44.502Z,16.40
2018-07-03T03:54:14.994Z,16.40
2018-07-03T03:56:46.346Z,16.30
2018-07-03T03:59:17.477Z,16.30
2018-07-03T04:01:49.160Z,16.30
2018-07-03T04:04:20.054Z,16.30
2018-07-03T04:06:50.581Z,16.20
2018-07-03T04:09:21.786Z,16.20
2018-07-03T04:11:52.502Z,16.20
2018-07-03T04:14:23.314Z,16.20
2018-07-03T04:16:54.926Z,16.30
2018-07-03T04:19:25.490Z,16.20
2018-07-03T04:21:55.836Z,16.30
2018-07-03T04:24:26.323Z,16.20
2018-07-03T04:26:57.080Z,16.30
2018-07-03T04:29:28.116Z,16.30
2018-07-03T04:31:58.544Z,16.30
2018-07-03T04:34:29.056Z,16.30
2018-07-03T04:37:00.445Z,16.30
2018-07-03T04:39:31.908Z,16.40
2018-07-03T04:42:02.541Z,16.40
2018-07-03T04:44:33.180Z,16.40
2018-07-03T04:47:03.831Z,16.40
2018-07-03T04:49:35.728Z,16.40
2018-07-03T04:52:06.619Z,16.50
2018-07-03T04:54:36.830Z,16.50
2018-07-03T04:57:07.845Z,16.50
2018-07-03T04:59:38.437Z,16.60
2018-07-03T05:02:08.654Z,16.60
2018-07-03T05:04:39.466Z,16.60
2018-07-03T05:07:09.693Z,16.60
2018-07-03T05:09:40.186Z,16.70
2018-07-03T05:12:10.386Z,16.70
2018-07-03T05:14:41.549Z,16.80
2018-07-03T05:17:12.895Z,16.80
2018-07-03T05:19:44.316Z,16.80
2018-07-03T05:22:15.208Z,16.90
2018-07-03T05:24:46.443Z,16.90
2018-07-03T05:27:19.123Z,17.00
2018-07-03T05:29:49.445Z,17.00
2018-07-03T05:32:21.403Z,17.10
2018-07-03T05:34:52.176Z,17.20
2018-07-03T05:37:23.295Z,17.20
2018-07-03T05:39:53.914Z,17.20
2018-07-03T05:42:24.474Z,17.00
2018-07-03T05:44:56.072Z,17.20
2018-07-03T05:47:27.808Z,17.50
2018-07-03T05:49:59.230Z,17.60
2018-07-03T05:52:30.037Z,17.70
2018-07-03T05:55:02.388Z,17.70
2018-07-03T05:57:32.564Z,17.90
2018-07-03T06:00:03.138Z,18.00
2018-07-03T06:02:33.869Z,18.10
2018-07-03T06:05:04.506Z,18.20
2018-07-03T06:07:35.279Z,18.30
2018-07-03T06:10:07.295Z,18.40
2018-07-03T06:12:38.304Z,18.60
2018-07-03T06:15:09.381Z,18.70
2018-07-03T06:17:39.458Z,18.70
2018-07-03T06:20:11.199Z,18.80
2018-07-03T06:22:42.655Z,18.90
2018-07-03T06:25:13.183Z,19.00
2018-07-03T06:27:44.242Z,19.10
2018-07-03T06:30:15.105Z,19.20
2018-07-03T06:32:47.695Z,19.30
2018-07-03T06:35:18.712Z,19.40
2018-07-03T06:37:49.309Z,19.50
2018-07-03T06:40:20.474Z,19.60
2018-07-03T06:42:51.236Z,19.70
2018-07-03T06:45:22.528Z,19.70
2018-07-03T06:47:52.805Z,19.80
2018-07-03T06:50:23.919Z,20.00
2018-07-03T06:52:54.235Z,20.30
2018-07-03T06:55:24.573Z,20.60
2018-07-03T06:57:55.055Z,20.90
2018-07-03T07:00:26.318Z,21.10
2018-07-03T07:02:57.349Z,21.20
2018-07-03T07:05:27.811Z,21.20
2018-07-03T07:07:58.647Z,21.20
2018-07-03T07:10:30.153Z,21.20
2018-07-03T07:13:00.847Z,21.20
2018-07-03T07:15:31.342Z,21.20
2018-07-03T07:18:01.645Z,21.20
2018-07-03T07:20:32.017Z,21.30
2018-07-03T07:23:02.373Z,21.40
2018-07-03T07:25:32.976Z,21.40
2018-07-03T07:28:03.911Z,21.50
2018-07-03T07:30:34.277Z,21.70
2018-07-03T07:33:04.733Z,21.80
2018-07-03T07:35:35.074Z,21.90
2018-07-03T07:38:05.591Z,21.90
2018-07-03T07:40:35.812Z,22.00
2018-07-03T07:43:06.773Z,22.10
2018-07-03T07:45:38.150Z,22.20
2018-07-03T07:48:08.437Z,22.30
2018-07-03T07:50:38.937Z,22.50
2018-07-03T07:53:09.994Z,22.70
2018-07-03T07:55:40.961Z,22.90
2018-07-03T07:58:11.844Z,23.10
2018-07-03T08:00:42.248Z,23.30
2018-07-03T08:03:13.037Z,23.50
2018-07-03T08:05:43.967Z,23.70
2018-07-03T08:08:14.224Z,23.90
2018-07-03T08:10:45.057Z,24.00
2018-07-03T08:13:15.219Z,24.10
2018-07-03T08:15:45.396Z,24.10
2018-07-03T08:18:15.675Z,24.10
2018-07-03T08:20:46.246Z,24.20
2018-07-03T08:23:16.456Z,24.30
2018-07-03T08:25:46.656Z,24.40
2018-07-03T08:28:17.317Z,24.60
2018-07-03T08:30:47.432Z,24.70
2018-07-03T08:33:17.625Z,24.80
2018-07-03T08:35:47.825Z,24.90
2018-07-03T08:38:21.696Z,25.00
2018-07-03T08:40:52.360Z,25.00
2018-07-03T08:43:28.380Z,25.10
2018-07-03T08:45:58.854Z,25.20
2018-07-03T08:48:29.695Z,25.20
2018-07-03T08:51:00.154Z,25.20
2018-07-03T08:53:30.860Z,25.20
2018-07-03T08:56:01.103Z,25.30
2018-07-03T08:58:31.303Z,25.30
2018-07-03T09:01:02.219Z,25.30
2018-07-03T09:03:32.581Z,25.40
2018-07-03T09:06:03.414Z,25.40
2018-07-03T09:08:33.696Z,25.50
2018-07-03T09:11:04.255Z,25.50
2018-07-03T09:13:34.328Z,25.50
2018-07-03T09:16:05.108Z,25.60
2018-07-03T09:18:35.894Z,25.70
2018-07-03T09:21:06.273Z,25.80
2018-07-03T09:23:37.106Z,25.80
2018-07-03T09:26:08.226Z,25.90
2018-07-03T09:28:38.431Z,25.90
2018-07-03T09:31:08.844Z,25.90
2018-07-03T09:33:39.087Z,26.00
2018-07-03T09:36:09.727Z,26.00
2018-07-03T09:38:40.320Z,26.10
2018-07-03T09:41:11.766Z,26.20
2018-07-03T09:43:42.195Z,26.20
2018-07-03T09:46:12.527Z,26.30
2018-07-03T09:48:42.625Z,26.30
2018-07-03T09:51:13.094Z,26.40
2018-07-03T09:53:44.210Z,26.40
2018-07-03T09:56:14.334Z,26.50
2018-07-03T09:58:44.943Z,26.60
2018-07-03T10:01:19.490Z,26.60
2018-07-03T10:03:49.904Z,26.60
2018-07-03T10:06:20.272Z,26.60
2018-07-03T10:08:50.427Z,26.70
2018-07-03T10:11:20.525Z,26.70
2018-07-03T10:13:51.730Z,26.70
2018-07-03T10:16:22.846Z,26.70
2018-07-03T10:18:54.199Z,26.80
2018-07-03T10:21:25.368Z,26.80
2018-07-03T10:23:55.897Z,26.80
2018-07-03T10:26:26.274Z,26.80
2018-07-03T10:28:56.567Z,26.90
2018-07-03T10:31:26.934Z,26.90
2018-07-03T10:33:57.112Z,26.90
2018-07-03T10:36:27.989Z,27.00
2018-07-03T10:38:58.368Z,27.00
2018-07-03T10:41:29.684Z,26.90
2018-07-03T10:44:01.221Z,26.90
2018-07-03T10:46:31.329Z,26.90
2018-07-03T10:49:01.944Z,27.00
2018-07-03T10:51:32.532Z,27.00
2018-07-03T10:54:03.110Z,27.00
2018-07-03T10:56:33.694Z,27.00
2018-07-03T10:59:04.540Z,27.00
2018-07-03T11:01:34.501Z,27.00
2018-07-03T11:04:05.654Z,27.00
2018-07-03T11:06:35.994Z,27.00
2018-07-03T11:09:10.309Z,26.90
2018-07-03T11:11:40.967Z,26.90
2018-07-03T11:14:11.653Z,27.00
2018-07-03T11:16:41.970Z,27.00
2018-07-03T11:19:12.194Z,27.00
2018-07-03T11:21:42.550Z,27.10
2018-07-03T11:24:13.114Z,27.10
2018-07-03T11:26:43.193Z,27.10
2018-07-03T11:29:13.440Z,27.10
2018-07-03T11:31:43.709Z,27.20
2018-07-03T11:34:13.770Z,27.20
2018-07-03T11:36:44.232Z,27.20
2018-07-03T11:39:14.796Z,27.30
2018-07-03T11:41:45.677Z,27.30
2018-07-03T11:44:16.089Z,27.30
2018-07-03T11:46:46.435Z,27.30
2018-07-03T11:49:16.831Z,27.30
2018-07-03T11:51:47.085Z,27.30
2018-07-03T11:54:17.276Z,27.40
2018-07-03T11:56:47.101Z,27.40
2018-07-03T11:59:17.339Z,27.40
2018-07-03T12:01:47.931Z,27.40
2018-07-03T12:04:24.994Z,27.50
2018-07-03T12:06:55.525Z,27.50
2018-07-03T12:09:29.018Z,27.50
2018-07-03T12:11:59.446Z,27.50
2018-07-03T12:14:30.330Z,27.60
2018-07-03T12:17:00.584Z,27.60
2018-07-03T12:19:31.010Z,27.60
2018-07-03T12:22:01.461Z,27.60
2018-07-03T12:24:31.887Z,27.70
2018-07-03T12:27:02.696Z,27.60
2018-07-03T12:29:33.199Z,27.60
2018-07-03T12:32:03.565Z,27.70
2018-07-03T12:34:34.094Z,27.70
2018-07-03T12:37:04.673Z,27.70
2018-07-03T12:39:35.189Z,27.70
2018-07-03T12:42:06.157Z,27.70
2018-07-03T12:44:36.352Z,27.70
2018-07-03T12:47:06.564Z,27.70
2018-07-03T12:49:36.946Z,27.70
2018-07-03T12:52:07.348Z,27.70
2018-07-03T12:54:37.649Z,27.80
2018-07-03T12:57:08.361Z,27.80
2018-07-03T12:59:39.091Z,27.70
2018-07-03T13:02:09.267Z,27.70
2018-07-03T13:04:40.409Z,27.70
2018-07-03T13:07:10.658Z,27.70
2018-07-03T13:09:41.029Z,27.70
2018-07-03T13:12:11.348Z,27.80
2018-07-03T13:14:41.614Z,27.80
2018-07-03T13:17:12.339Z,27.80
2018-07-03T13:19:42.867Z,27.90
2018-07-03T13:22:13.480Z,27.90
2018-07-03T13:24:43.565Z,27.90
2018-07-03T13:27:14.008Z,27.90
2018-07-03T13:29:44.526Z,27.90
2018-07-03T13:32:14.976Z,27.90
2018-07-03T13:34:44.908Z,28.00
2018-07-03T13:37:14.957Z,28.00
2018-07-03T13:39:45.488Z,28.00
2018-07-03T13:42:15.832Z,28.10
2018-07-03T13:44:46.007Z,28.10
2018-07-03T13:47:16.204Z,28.20
2018-07-03T13:49:46.687Z,28.30
2018-07-03T13:52:17.085Z,28.60
2018-07-03T13:54:47.222Z,29.10
2018-07-03T13:57:24.191Z,30.10
2018-07-03T13:59:54.780Z,31.40
2018-07-03T14:02:25.961Z,32.80
2018-07-03T14:04:56.063Z,34.10
2018-07-03T14:07:26.599Z,35.30
2018-07-03T14:09:57.608Z,36.40
2018-07-03T14:12:27.932Z,37.30
2018-07-03T14:14:58.043Z,38.10
2018-07-03T14:17:28.418Z,39.00
2018-07-03T14:19:58.606Z,39.60
2018-07-03T14:22:28.886Z,40.30
2018-07-03T14:24:59.145Z,40.90
2018-07-03T14:27:29.389Z,41.40
2018-07-03T14:29:59.768Z,42.10
2018-07-03T14:32:30.210Z,42.70
2018-07-03T14:35:00.604Z,43.50
2018-07-03T14:37:31.035Z,44.20
2018-07-03T14:40:02.282Z,44.90
2018-07-03T14:42:32.388Z,45.60
2018-07-03T14:45:02.735Z,46.30
2018-07-03T14:47:33.868Z,46.80
2018-07-03T14:50:04.225Z,47.20
2018-07-03T14:52:34.626Z,47.70
2018-07-03T14:55:06.080Z,47.90
2018-07-03T14:57:36.425Z,48.10
2018-07-03T15:00:08.074Z,48.30
2018-07-03T15:02:38.042Z,48.20
2018-07-03T15:05:08.315Z,48.40
2018-07-03T15:07:38.332Z,48.60
2018-07-03T15:10:08.759Z,48.80
2018-07-03T15:12:39.112Z,48.80
2018-07-03T15:15:10.112Z,48.90
2018-07-03T15:17:40.490Z,49.10
2018-07-03T15:20:10.763Z,49.00
2018-07-03T15:22:40.959Z,48.80
2018-07-03T15:25:11.603Z,48.70
2018-07-03T15:27:42.521Z,48.60
2018-07-03T15:30:16.969Z,48.70
2018-07-03T15:32:47.667Z,48.70
2018-07-03T15:35:17.894Z,48.70
2018-07-03T15:37:48.273Z,48.90
2018-07-03T15:40:18.506Z,49.10
2018-07-03T15:42:48.856Z,49.20
2018-07-03T15:45:19.283Z,49.40
2018-07-03T15:47:49.760Z,49.60
2018-07-03T15:50:19.874Z,49.80
2018-07-03T15:52:50.201Z,49.90
2018-07-03T15:55:20.541Z,50.00
2018-07-03T16:00:29.341Z,50.20
2018-07-03T16:03:16.045Z,50.10
2018-07-03T16:06:03.192Z,50.00
2018-07-03T16:09:39.253Z,49.90
2018-07-03T16:12:09.453Z,49.80
2018-07-03T16:14:40.191Z,49.80
2018-07-03T16:17:11.055Z,49.80
2018-07-03T16:19:46.680Z,49.80
2018-07-03T16:22:16.711Z,49.70
2018-07-03T16:24:49.980Z,49.70
2018-07-03T16:27:20.931Z,49.70
2018-07-03T16:29:51.016Z,49.70
2018-07-03T16:32:21.314Z,49.80
2018-07-03T16:35:07.634Z,49.70
2018-07-03T16:37:38.237Z,49.50
2018-07-03T16:40:20.331Z,49.20
2018-07-03T16:42:50.621Z,49.00
2018-07-03T16:45:20.905Z,48.80
2018-07-03T16:47:51.496Z,48.70
2018-07-03T16:50:22.036Z,48.50
2018-07-03T16:52:52.265Z,48.40
2018-07-03T16:55:22.766Z,48.40
2018-07-03T16:57:53.242Z,48.30
2018-07-03T17:00:29.173Z,48.20
2018-07-03T17:02:59.605Z,48.10
2018-07-03T17:05:36.680Z,47.90
2018-07-03T17:08:07.204Z,47.70
2018-07-03T17:10:37.621Z,47.60
2018-07-03T17:13:18.758Z,47.40
2018-07-03T17:15:49.637Z,47.20
2018-07-03T17:18:19.661Z,46.90
2018-07-03T17:20:50.069Z,46.60
2018-07-03T17:23:20.169Z,46.40
2018-07-03T17:25:50.565Z,46.30
2018-07-03T17:28:21.535Z,46.20
2018-07-03T17:30:51.718Z,46.20
2018-07-03T17:33:21.882Z,46.10
2018-07-03T17:35:55.468Z,46.00
2018-07-03T17:38:26.497Z,45.90
2018-07-03T17:41:13.377Z,45.70
2018-07-03T17:44:14.141Z,45.50
2018-07-03T17:46:44.648Z,45.30
2018-07-03T17:49:15.701Z,45.10
2018-07-03T17:51:46.016Z,44.80
2018-07-03T17:54:16.473Z,44.40
2018-07-03T17:56:47.113Z,44.10
2018-07-03T17:59:17.866Z,43.80
2018-07-03T18:01:48.798Z,43.60
2018-07-03T18:04:19.101Z,43.40
2018-07-03T18:06:49.224Z,43.20
2018-07-03T18:09:19.481Z,42.90
2018-07-03T18:11:49.582Z,42.70
2018-07-03T18:14:19.548Z,42.60
2018-07-03T18:16:49.684Z,42.50
2018-07-03T18:19:26.001Z,42.30
2018-07-03T18:21:57.122Z,42.20
2018-07-03T18:24:29.058Z,42.10
2018-07-03T18:26:59.046Z,42.00
2018-07-03T18:29:29.464Z,41.90
2018-07-03T18:31:59.921Z,41.70
2018-07-03T18:34:29.968Z,41.50
2018-07-03T18:37:01.103Z,41.30
2018-07-03T18:39:31.629Z,41.10
2018-07-03T18:42:01.922Z,40.90
2018-07-03T18:44:32.679Z,40.80
2018-07-03T18:47:02.749Z,40.50
2018-07-03T18:49:33.759Z,40.30
2018-07-03T18:52:04.310Z,40.10
2018-07-03T18:54:34.246Z,39.90
2018-07-03T18:57:04.284Z,39.60
2018-07-03T18:59:35.399Z,39.40
2018-07-03T19:02:07.107Z,39.10
2018-07-03T19:04:37.326Z,38.90
2018-07-03T19:07:07.800Z,38.60
2018-07-03T19:12:27.182Z,37.50
2018-07-03T19:14:59.423Z,36.80
2018-07-03T19:17:29.520Z,36.10
2018-07-03T19:19:59.762Z,35.50
2018-07-03T19:22:29.824Z,35.10
2018-07-03T19:24:59.921Z,34.70
2018-07-03T19:27:31.055Z,34.10
2018-07-03T19:30:01.879Z,33.50
2018-07-03T19:32:33.299Z,33.00
2018-07-03T19:35:05.366Z,32.50
2018-07-03T19:37:35.318Z,31.90
2018-07-03T19:40:06.499Z,31.40
2018-07-03T19:42:36.628Z,30.90
2018-07-03T19:45:07.584Z,30.50
2018-07-03T19:47:38.701Z,30.10
2018-07-03T19:50:09.679Z,29.80
2018-07-03T19:52:41.904Z,29.40
2018-07-03T19:55:11.942Z,29.10
2018-07-03T19:57:42.781Z,28.80
2018-07-03T20:00:19.900Z,28.50
2018-07-03T20:02:50.468Z,28.20
2018-07-03T20:05:21.281Z,27.90
2018-07-03T20:07:58.674Z,27.70
2018-07-03T20:10:28.691Z,27.40
2018-07-03T20:12:59.286Z,27.20
2018-07-03T20:15:29.578Z,26.90
2018-07-03T20:18:01.004Z,26.70
2018-07-03T20:20:31.331Z,26.50
2018-07-03T20:23:02.377Z,26.30
2018-07-03T20:25:32.393Z,26.10
2018-07-03T20:28:02.616Z,25.90
2018-07-03T20:30:32.555Z,25.70
2018-07-03T20:33:02.465Z,25.50
2018-07-03T20:35:32.497Z,25.30
2018-07-03T20:38:04.846Z,25.10
2018-07-03T20:40:58.093Z,25.00
2018-07-03T20:43:29.025Z,24.80
2018-07-03T20:45:59.002Z,24.60
2018-07-03T20:48:29.631Z,24.50
2018-07-03T20:51:01.376Z,24.30
2018-07-03T20:53:31.350Z,24.10
2018-07-03T20:56:03.051Z,24.00
2018-07-03T20:58:32.952Z,23.80
2018-07-03T21:01:03.207Z,23.70
2018-07-03T21:03:34.511Z,23.60
2018-07-03T21:06:04.992Z,23.50
2018-07-03T21:08:34.870Z,23.40
2018-07-03T21:11:04.912Z,23.30
2018-07-03T21:13:35.567Z,23.20
2018-07-03T21:16:05.464Z,23.10
2018-07-03T21:18:35.621Z,23.00
2018-07-03T21:21:06.014Z,22.90
2018-07-03T21:23:35.940Z,22.80
2018-07-03T21:26:05.934Z,22.70
2018-07-03T21:28:35.830Z,22.60
2018-07-03T21:31:05.801Z,22.50
2018-07-03T21:33:39.712Z,22.40
2018-07-03T21:36:10.479Z,22.30
2018-07-03T21:38:41.622Z,22.20
2018-07-03T21:41:12.301Z,22.10
2018-07-03T21:43:45.494Z,22.00
2018-07-03T21:46:30.983Z,21.90
2018-07-03T21:49:07.159Z,21.80
2018-07-03T21:51:38.279Z,21.70
2018-07-03T21:57:17.324Z,21.40
2018-07-03T22:07:01.932Z,21.30
2018-07-03T22:09:32.119Z,20.60
2018-07-03T22:12:02.574Z,20.50
2018-07-03T22:14:33.228Z,20.50
2018-07-03T22:17:04.044Z,20.40
2018-07-03T22:19:34.501Z,20.40
2018-07-03T22:22:05.672Z,20.30
2018-07-03T22:24:36.246Z,20.30
2018-07-03T22:27:06.694Z,20.20
2018-07-03T22:29:37.613Z,20.10
2018-07-03T22:32:08.696Z,20.10
2018-07-03T22:34:39.161Z,20.10
2018-07-03T22:37:09.705Z,20.00
2018-07-03T22:39:40.127Z,20.00
2018-07-03T22:42:10.261Z,19.90
2018-07-03T22:44:41.014Z,19.90
2018-07-03T22:47:11.543Z,19.90
2018-07-03T22:49:41.959Z,19.90
2018-07-03T22:52:12.427Z,19.60
2018-07-03T22:54:42.939Z,19.80
2018-07-03T22:57:13.856Z,19.80
2018-07-03T22:59:44.245Z,19.80
2018-07-03T23:02:15.012Z,19.80
2018-07-03T23:04:45.233Z,19.80
2018-07-03T23:07:15.776Z,19.80
2018-07-03T23:09:46.430Z,19.80
2018-07-03T23:12:20.575Z,19.70
2018-07-03T23:14:52.025Z,19.70
2018-07-03T23:17:22.480Z,19.70
2018-07-03T23:19:52.586Z,19.70
2018-07-03T23:22:22.992Z,19.60
2018-07-03T23:24:53.327Z,19.60
2018-07-03T23:27:23.435Z,19.60
2018-07-03T23:29:53.802Z,19.60
2018-07-03T23:32:24.053Z,19.60
2018-07-03T23:34:54.114Z,19.50
2018-07-03T23:37:24.299Z,19.50
2018-07-03T23:39:54.534Z,19.40
2018-07-03T23:42:25.053Z,19.40
2018-07-03T23:44:55.237Z,19.30
2018-07-03T23:47:42.203Z,19.30
2018-07-03T23:50:28.906Z,19.20
2018-07-03T23:53:15.383Z,19.20
2018-07-03T23:56:01.743Z,19.10
2018-07-03T23:58:48.526Z,19.00
